sensor_id;sensor_type;location;lat;lon;timestamp;P1;durP1;ratioP1;P2;durP2;ratioP2
73170;SDS011;61381;50.118;19.962;2023-02-01T00:08:06;8.07;;;4.20;;
73170;SDS011;61381;50.118;19.962;2023-02-01T00:13:07;7.80;;;4.75;;
73170;SDS011;61381;50.118;19.962;2023-02-01T00:18:08;8.25;;;4.38;;
73170;SDS011;61381;50.118;19.962;2023-02-01T00:23:10;6.53;;;3.30;;
73170;SDS011;61381;50.118;19.962;2023-02-01T00:28:12;5.53;;;3.67;;
73170;SDS011;61381;50.118;19.962;2023-02-01T00:33:13;6.35;;;3.88;;
73170;SDS011;61381;50.118;19.962;2023-02-01T00:38:15;10.52;;;4.07;;
73170;SDS011;61381;50.118;19.962;2023-02-01T00:43:16;6.93;;;3.50;;
73170;SDS011;61381;50.118;19.962;2023-02-01T00:48:17;7.95;;;4.18;;
73170;SDS011;61381;50.118;19.962;2023-02-01T00:53:20;3.45;;;2.30;;
73170;SDS011;61381;50.118;19.962;2023-02-01T00:58:21;8.18;;;3.92;;
73170;SDS011;61381;50.118;19.962;2023-02-01T01:03:22;4.95;;;3.33;;
73170;SDS011;61381;50.118;19.962;2023-02-01T01:08:24;8.20;;;3.72;;
73170;SDS011;61381;50.118;19.962;2023-02-01T01:13:26;7.53;;;3.63;;
73170;SDS011;61381;50.118;19.962;2023-02-01T01:18:27;8.18;;;4.57;;
73170;SDS011;61381;50.118;19.962;2023-02-01T01:23:30;6.55;;;3.00;;
73170;SDS011;61381;50.118;19.962;2023-02-01T01:28:31;6.55;;;3.83;;
73170;SDS011;61381;50.118;19.962;2023-02-01T01:33:32;5.13;;;2.90;;
73170;SDS011;61381;50.118;19.962;2023-02-01T01:38:34;5.05;;;2.72;;
73170;SDS011;61381;50.118;19.962;2023-02-01T01:43:46;7.65;;;3.83;;
73170;SDS011;61381;50.118;19.962;2023-02-01T01:48:50;6.00;;;3.35;;
73170;SDS011;61381;50.118;19.962;2023-02-01T01:54:00;2.85;;;1.83;;
73170;SDS011;61381;50.118;19.962;2023-02-01T02:04:05;6.30;;;3.63;;
73170;SDS011;61381;50.118;19.962;2023-02-01T02:09:08;10.70;;;4.13;;
73170;SDS011;61381;50.118;19.962;2023-02-01T02:14:10;4.07;;;2.42;;
73170;SDS011;61381;50.118;19.962;2023-02-01T02:19:22;5.32;;;2.85;;
73170;SDS011;61381;50.118;19.962;2023-02-01T02:24:53;6.82;;;3.55;;
73170;SDS011;61381;50.118;19.962;2023-02-01T02:30:15;6.25;;;2.00;;
73170;SDS011;61381;50.118;19.962;2023-02-01T02:35:42;2.40;;;1.40;;
73170;SDS011;61381;50.118;19.962;2023-02-01T02:40:51;1.77;;;0.88;;
73170;SDS011;61381;50.118;19.962;2023-02-01T02:51:07;5.43;;;0.88;;
73170;SDS011;61381;50.118;19.962;2023-02-01T02:56:13;3.10;;;1.05;;
73170;SDS011;61381;50.118;19.962;2023-02-01T03:01:16;1.83;;;0.77;;
73170;SDS011;61381;50.118;19.962;2023-02-01T03:06:18;4.95;;;1.05;;
73170;SDS011;61381;50.118;19.962;2023-02-01T03:11:19;10.95;;;1.98;;
73170;SDS011;61381;50.118;19.962;2023-02-01T03:16:22;3.03;;;0.60;;
73170;SDS011;61381;50.118;19.962;2023-02-01T03:21:28;2.28;;;0.85;;
73170;SDS011;61381;50.118;19.962;2023-02-01T03:26:33;2.65;;;0.80;;
73170;SDS011;61381;50.118;19.962;2023-02-01T03:31:39;3.97;;;1.70;;
73170;SDS011;61381;50.118;19.962;2023-02-01T03:41:48;5.93;;;1.38;;
73170;SDS011;61381;50.118;19.962;2023-02-01T03:46:52;3.83;;;0.93;;
73170;SDS011;61381;50.118;19.962;2023-02-01T03:51:58;3.88;;;1.27;;
73170;SDS011;61381;50.118;19.962;2023-02-01T03:57:00;3.70;;;0.90;;
73170;SDS011;61381;50.118;19.962;2023-02-01T04:02:05;3.15;;;1.30;;
73170;SDS011;61381;50.118;19.962;2023-02-01T04:07:08;2.33;;;1.13;;
73170;SDS011;61381;50.118;19.962;2023-02-01T04:12:09;6.47;;;1.63;;
73170;SDS011;61381;50.118;19.962;2023-02-01T04:17:10;2.58;;;1.23;;
73170;SDS011;61381;50.118;19.962;2023-02-01T04:22:13;3.95;;;1.83;;
73170;SDS011;61381;50.118;19.962;2023-02-01T04:27:14;4.75;;;1.45;;
73170;SDS011;61381;50.118;19.962;2023-02-01T04:32:15;3.35;;;1.08;;
73170;SDS011;61381;50.118;19.962;2023-02-01T04:37:18;2.50;;;1.02;;
73170;SDS011;61381;50.118;19.962;2023-02-01T04:42:19;4.45;;;1.50;;
73170;SDS011;61381;50.118;19.962;2023-02-01T04:47:20;1.77;;;1.45;;
73170;SDS011;61381;50.118;19.962;2023-02-01T04:52:22;2.58;;;1.38;;
73170;SDS011;61381;50.118;19.962;2023-02-01T04:57:24;2.63;;;1.60;;
73170;SDS011;61381;50.118;19.962;2023-02-01T05:02:25;3.45;;;1.65;;
73170;SDS011;61381;50.118;19.962;2023-02-01T05:07:28;6.57;;;2.50;;
73170;SDS011;61381;50.118;19.962;2023-02-01T05:12:29;3.33;;;1.60;;
73170;SDS011;61381;50.118;19.962;2023-02-01T05:17:30;4.80;;;1.90;;
73170;SDS011;61381;50.118;19.962;2023-02-01T05:22:33;3.90;;;1.50;;
73170;SDS011;61381;50.118;19.962;2023-02-01T05:27:34;2.83;;;1.40;;
73170;SDS011;61381;50.118;19.962;2023-02-01T05:32:35;1.48;;;0.80;;
73170;SDS011;61381;50.118;19.962;2023-02-01T05:37:38;3.35;;;1.98;;
73170;SDS011;61381;50.118;19.962;2023-02-01T05:42:39;3.05;;;1.83;;
73170;SDS011;61381;50.118;19.962;2023-02-01T05:47:40;5.18;;;2.70;;
73170;SDS011;61381;50.118;19.962;2023-02-01T05:52:42;3.90;;;2.53;;
73170;SDS011;61381;50.118;19.962;2023-02-01T05:57:43;3.35;;;1.80;;
73170;SDS011;61381;50.118;19.962;2023-02-01T06:02:44;3.25;;;1.98;;
73170;SDS011;61381;50.118;19.962;2023-02-01T06:07:47;2.58;;;1.65;;
73170;SDS011;61381;50.118;19.962;2023-02-01T06:12:48;4.60;;;2.05;;
73170;SDS011;61381;50.118;19.962;2023-02-01T06:17:49;6.13;;;2.20;;
73170;SDS011;61381;50.118;19.962;2023-02-01T06:22:52;5.70;;;2.20;;
73170;SDS011;61381;50.118;19.962;2023-02-01T06:27:53;5.50;;;2.67;;
73170;SDS011;61381;50.118;19.962;2023-02-01T06:32:54;3.75;;;1.98;;
73170;SDS011;61381;50.118;19.962;2023-02-01T06:37:57;7.70;;;2.65;;
73170;SDS011;61381;50.118;19.962;2023-02-01T06:42:58;4.43;;;2.35;;
73170;SDS011;61381;50.118;19.962;2023-02-01T06:47:59;10.60;;;3.33;;
73170;SDS011;61381;50.118;19.962;2023-02-01T06:58:02;5.47;;;2.28;;
73170;SDS011;61381;50.118;19.962;2023-02-01T07:03:04;5.53;;;2.60;;
73170;SDS011;61381;50.118;19.962;2023-02-01T07:08:06;3.70;;;1.92;;
73170;SDS011;61381;50.118;19.962;2023-02-01T07:13:07;5.60;;;1.83;;
73170;SDS011;61381;50.118;19.962;2023-02-01T07:18:08;5.13;;;1.98;;
73170;SDS011;61381;50.118;19.962;2023-02-01T07:23:11;5.68;;;1.83;;
73170;SDS011;61381;50.118;19.962;2023-02-01T07:28:12;7.82;;;2.63;;
73170;SDS011;61381;50.118;19.962;2023-02-01T07:33:13;5.13;;;2.13;;
73170;SDS011;61381;50.118;19.962;2023-02-01T07:38:16;2.40;;;1.50;;
73170;SDS011;61381;50.118;19.962;2023-02-01T07:43:17;6.07;;;1.77;;
73170;SDS011;61381;50.118;19.962;2023-02-01T07:48:18;4.63;;;2.58;;
73170;SDS011;61381;50.118;19.962;2023-02-01T07:58:22;4.95;;;2.08;;
73170;SDS011;61381;50.118;19.962;2023-02-01T08:03:24;6.65;;;2.13;;
73170;SDS011;61381;50.118;19.962;2023-02-01T08:08:26;5.05;;;1.63;;
73170;SDS011;61381;50.118;19.962;2023-02-01T08:13:27;6.60;;;2.15;;
73170;SDS011;61381;50.118;19.962;2023-02-01T08:18:29;5.10;;;2.00;;
73170;SDS011;61381;50.118;19.962;2023-02-01T08:23:33;3.08;;;1.08;;
73170;SDS011;61381;50.118;19.962;2023-02-01T08:28:35;6.63;;;2.10;;
73170;SDS011;61381;50.118;19.962;2023-02-01T08:33:37;5.47;;;1.73;;
73170;SDS011;61381;50.118;19.962;2023-02-01T08:38:40;4.07;;;1.75;;
73170;SDS011;61381;50.118;19.962;2023-02-01T08:43:41;3.13;;;1.60;;
73170;SDS011;61381;50.118;19.962;2023-02-01T08:48:43;4.97;;;2.10;;
73170;SDS011;61381;50.118;19.962;2023-02-01T08:53:47;9.77;;;3.30;;
73170;SDS011;61381;50.118;19.962;2023-02-01T08:58:49;6.13;;;3.10;;
73170;SDS011;61381;50.118;19.962;2023-02-01T09:03:50;5.15;;;2.58;;
73170;SDS011;61381;50.118;19.962;2023-02-01T09:08:52;8.52;;;2.60;;
73170;SDS011;61381;50.118;19.962;2023-02-01T09:13:53;10.00;;;3.13;;
73170;SDS011;61381;50.118;19.962;2023-02-01T09:23:58;4.72;;;2.00;;
73170;SDS011;61381;50.118;19.962;2023-02-01T09:28:59;8.93;;;1.88;;
73170;SDS011;61381;50.118;19.962;2023-02-01T09:34:01;4.63;;;2.40;;
73170;SDS011;61381;50.118;19.962;2023-02-01T09:44:06;5.88;;;2.53;;
73170;SDS011;61381;50.118;19.962;2023-02-01T09:49:18;3.28;;;1.50;;
73170;SDS011;61381;50.118;19.962;2023-02-01T09:54:28;4.47;;;2.35;;
73170;SDS011;61381;50.118;19.962;2023-02-01T09:59:39;4.15;;;1.98;;
73170;SDS011;61381;50.118;19.962;2023-02-01T10:04:43;6.10;;;2.22;;
73170;SDS011;61381;50.118;19.962;2023-02-01T10:09:49;6.05;;;2.90;;
73170;SDS011;61381;50.118;19.962;2023-02-01T10:14:59;4.82;;;1.60;;
73170;SDS011;61381;50.118;19.962;2023-02-01T10:20:11;4.20;;;1.50;;
73170;SDS011;61381;50.118;19.962;2023-02-01T10:25:22;5.03;;;2.42;;
73170;SDS011;61381;50.118;19.962;2023-02-01T10:30:27;4.70;;;1.73;;
73170;SDS011;61381;50.118;19.962;2023-02-01T10:35:34;3.88;;;1.60;;
73170;SDS011;61381;50.118;19.962;2023-02-01T10:40:38;1.73;;;0.93;;
73170;SDS011;61381;50.118;19.962;2023-02-01T10:45:40;3.05;;;1.70;;
73170;SDS011;61381;50.118;19.962;2023-02-01T10:50:44;2.88;;;1.35;;
73170;SDS011;61381;50.118;19.962;2023-02-01T10:55:53;4.38;;;1.92;;
73170;SDS011;61381;50.118;19.962;2023-02-01T11:00:56;4.63;;;1.80;;
73170;SDS011;61381;50.118;19.962;2023-02-01T11:06:00;5.25;;;2.50;;
73170;SDS011;61381;50.118;19.962;2023-02-01T11:11:04;3.08;;;1.98;;
73170;SDS011;61381;50.118;19.962;2023-02-01T11:16:05;6.90;;;2.53;;
73170;SDS011;61381;50.118;19.962;2023-02-01T11:21:10;5.03;;;2.10;;
73170;SDS011;61381;50.118;19.962;2023-02-01T11:26:14;6.25;;;2.03;;
73170;SDS011;61381;50.118;19.962;2023-02-01T11:31:21;4.78;;;2.10;;
73170;SDS011;61381;50.118;19.962;2023-02-01T11:36:25;4.13;;;1.70;;
73170;SDS011;61381;50.118;19.962;2023-02-01T11:41:29;5.15;;;2.78;;
73170;SDS011;61381;50.118;19.962;2023-02-01T11:46:31;4.00;;;2.25;;
73170;SDS011;61381;50.118;19.962;2023-02-01T11:51:43;5.68;;;2.47;;
73170;SDS011;61381;50.118;19.962;2023-02-01T11:56:54;4.15;;;2.13;;
73170;SDS011;61381;50.118;19.962;2023-02-01T12:07:13;4.95;;;2.00;;
73170;SDS011;61381;50.118;19.962;2023-02-01T12:12:22;5.20;;;3.22;;
73170;SDS011;61381;50.118;19.962;2023-02-01T12:17:54;4.80;;;2.75;;
73170;SDS011;61381;50.118;19.962;2023-02-01T12:23:17;8.57;;;2.40;;
73170;SDS011;61381;50.118;19.962;2023-02-01T12:28:46;9.63;;;3.40;;
73170;SDS011;61381;50.118;19.962;2023-02-01T12:34:07;4.75;;;2.38;;
73170;SDS011;61381;50.118;19.962;2023-02-01T12:39:23;7.03;;;3.60;;
73170;SDS011;61381;50.118;19.962;2023-02-01T12:44:31;7.60;;;2.38;;
73170;SDS011;61381;50.118;19.962;2023-02-01T12:49:41;6.93;;;3.90;;
73170;SDS011;61381;50.118;19.962;2023-02-01T12:54:50;7.32;;;3.40;;
73170;SDS011;61381;50.118;19.962;2023-02-01T13:00:00;2.58;;;1.90;;
73170;SDS011;61381;50.118;19.962;2023-02-01T13:05:11;4.43;;;2.13;;
73170;SDS011;61381;50.118;19.962;2023-02-01T13:10:17;8.38;;;3.08;;
73170;SDS011;61381;50.118;19.962;2023-02-01T13:15:27;6.38;;;3.42;;
73170;SDS011;61381;50.118;19.962;2023-02-01T13:20:32;5.00;;;2.65;;
73170;SDS011;61381;50.118;19.962;2023-02-01T13:25:37;6.20;;;2.60;;
73170;SDS011;61381;50.118;19.962;2023-02-01T13:30:54;4.88;;;2.65;;
73170;SDS011;61381;50.118;19.962;2023-02-01T13:36:36;4.75;;;2.75;;
73170;SDS011;61381;50.118;19.962;2023-02-01T13:41:51;7.80;;;2.58;;
73170;SDS011;61381;50.118;19.962;2023-02-01T13:46:56;4.38;;;2.22;;
73170;SDS011;61381;50.118;19.962;2023-02-01T13:52:00;5.13;;;2.67;;
73170;SDS011;61381;50.118;19.962;2023-02-01T14:13:04;6.43;;;2.85;;
73170;SDS011;61381;50.118;19.962;2023-02-01T14:23:57;6.40;;;3.00;;
73170;SDS011;61381;50.118;19.962;2023-02-01T14:29:02;11.60;;;3.33;;
73170;SDS011;61381;50.118;19.962;2023-02-01T14:34:15;7.90;;;3.20;;
73170;SDS011;61381;50.118;19.962;2023-02-01T14:39:26;8.15;;;3.10;;
73170;SDS011;61381;50.118;19.962;2023-02-01T14:44:34;4.03;;;2.42;;
73170;SDS011;61381;50.118;19.962;2023-02-01T14:49:37;2.45;;;1.70;;
73170;SDS011;61381;50.118;19.962;2023-02-01T14:54:44;8.15;;;2.97;;
73170;SDS011;61381;50.118;19.962;2023-02-01T14:59:52;6.57;;;2.95;;
73170;SDS011;61381;50.118;19.962;2023-02-01T15:05:00;6.60;;;2.45;;
73170;SDS011;61381;50.118;19.962;2023-02-01T15:10:03;5.43;;;2.38;;
73170;SDS011;61381;50.118;19.962;2023-02-01T15:15:11;4.00;;;2.15;;
73170;SDS011;61381;50.118;19.962;2023-02-01T15:20:15;3.60;;;2.05;;
73170;SDS011;61381;50.118;19.962;2023-02-01T15:25:20;5.30;;;2.97;;
73170;SDS011;61381;50.118;19.962;2023-02-01T15:30:23;4.97;;;2.67;;
73170;SDS011;61381;50.118;19.962;2023-02-01T15:35:36;4.00;;;2.50;;
73170;SDS011;61381;50.118;19.962;2023-02-01T15:40:53;9.10;;;3.90;;
73170;SDS011;61381;50.118;19.962;2023-02-01T15:45:56;8.65;;;4.35;;
73170;SDS011;61381;50.118;19.962;2023-02-01T15:50:58;10.18;;;4.95;;
73170;SDS011;61381;50.118;19.962;2023-02-01T15:56:03;7.78;;;4.35;;
73170;SDS011;61381;50.118;19.962;2023-02-01T16:01:05;8.02;;;3.30;;
73170;SDS011;61381;50.118;19.962;2023-02-01T16:06:07;8.68;;;3.97;;
73170;SDS011;61381;50.118;19.962;2023-02-01T16:11:25;7.10;;;4.25;;
73170;SDS011;61381;50.118;19.962;2023-02-01T16:16:27;6.65;;;3.40;;
73170;SDS011;61381;50.118;19.962;2023-02-01T16:21:29;5.25;;;3.20;;
73170;SDS011;61381;50.118;19.962;2023-02-01T16:26:32;6.63;;;4.47;;
73170;SDS011;61381;50.118;19.962;2023-02-01T16:31:35;10.95;;;4.55;;
73170;SDS011;61381;50.118;19.962;2023-02-01T16:36:38;10.52;;;5.93;;
73170;SDS011;61381;50.118;19.962;2023-02-01T16:41:40;12.50;;;6.30;;
73170;SDS011;61381;50.118;19.962;2023-02-01T16:46:42;14.10;;;6.57;;
73170;SDS011;61381;50.118;19.962;2023-02-01T16:51:45;10.30;;;4.78;;
73170;SDS011;61381;50.118;19.962;2023-02-01T16:56:49;9.70;;;5.20;;
73170;SDS011;61381;50.118;19.962;2023-02-01T17:01:50;11.75;;;5.85;;
73170;SDS011;61381;50.118;19.962;2023-02-01T17:06:52;8.82;;;4.60;;
73170;SDS011;61381;50.118;19.962;2023-02-01T17:11:54;8.27;;;4.05;;
73170;SDS011;61381;50.118;19.962;2023-02-01T17:16:55;12.88;;;5.60;;
73170;SDS011;61381;50.118;19.962;2023-02-01T17:21:56;10.07;;;5.50;;
73170;SDS011;61381;50.118;19.962;2023-02-01T17:26:59;12.43;;;6.25;;
73170;SDS011;61381;50.118;19.962;2023-02-01T17:32:00;13.25;;;6.18;;
73170;SDS011;61381;50.118;19.962;2023-02-01T17:37:04;7.18;;;3.97;;
73170;SDS011;61381;50.118;19.962;2023-02-01T17:42:10;11.77;;;6.00;;
73170;SDS011;61381;50.118;19.962;2023-02-01T17:47:11;15.43;;;6.75;;
73170;SDS011;61381;50.118;19.962;2023-02-01T17:52:13;9.48;;;5.32;;
73170;SDS011;61381;50.118;19.962;2023-02-01T17:57:18;11.57;;;5.53;;
73170;SDS011;61381;50.118;19.962;2023-02-01T18:02:20;12.88;;;6.32;;
73170;SDS011;61381;50.118;19.962;2023-02-01T18:07:22;19.75;;;8.13;;
73170;SDS011;61381;50.118;19.962;2023-02-01T18:12:32;17.02;;;7.90;;
73170;SDS011;61381;50.118;19.962;2023-02-01T18:17:33;14.00;;;7.13;;
73170;SDS011;61381;50.118;19.962;2023-02-01T18:22:34;14.77;;;7.55;;
73170;SDS011;61381;50.118;19.962;2023-02-01T18:27:36;13.88;;;7.32;;
73170;SDS011;61381;50.118;19.962;2023-02-01T18:32:38;14.57;;;7.55;;
73170;SDS011;61381;50.118;19.962;2023-02-01T18:37:39;17.38;;;7.82;;
73170;SDS011;61381;50.118;19.962;2023-02-01T18:42:42;18.08;;;9.15;;
73170;SDS011;61381;50.118;19.962;2023-02-01T18:47:43;15.32;;;7.60;;
73170;SDS011;61381;50.118;19.962;2023-02-01T18:52:44;8.95;;;5.22;;
73170;SDS011;61381;50.118;19.962;2023-02-01T18:57:47;13.88;;;4.38;;
73170;SDS011;61381;50.118;19.962;2023-02-01T19:02:48;10.15;;;5.43;;
73170;SDS011;61381;50.118;19.962;2023-02-01T19:07:50;10.80;;;5.07;;
73170;SDS011;61381;50.118;19.962;2023-02-01T19:17:54;13.75;;;5.95;;
73170;SDS011;61381;50.118;19.962;2023-02-01T19:22:55;13.93;;;3.97;;
73170;SDS011;61381;50.118;19.962;2023-02-01T19:27:58;12.48;;;6.05;;
73170;SDS011;61381;50.118;19.962;2023-02-01T19:32:59;17.95;;;7.18;;
73170;SDS011;61381;50.118;19.962;2023-02-01T19:38:00;15.27;;;5.75;;
73170;SDS011;61381;50.118;19.962;2023-02-01T19:43:03;14.98;;;6.57;;
73170;SDS011;61381;50.118;19.962;2023-02-01T19:48:04;11.93;;;5.80;;
73170;SDS011;61381;50.118;19.962;2023-02-01T19:53:05;14.68;;;6.55;;
73170;SDS011;61381;50.118;19.962;2023-02-01T20:03:09;12.38;;;5.65;;
73170;SDS011;61381;50.118;19.962;2023-02-01T20:08:10;8.07;;;4.75;;
73170;SDS011;61381;50.118;19.962;2023-02-01T20:13:13;12.05;;;5.00;;
73170;SDS011;61381;50.118;19.962;2023-02-01T20:18:14;9.60;;;4.60;;
73170;SDS011;61381;50.118;19.962;2023-02-01T20:23:16;10.35;;;4.72;;
73170;SDS011;61381;50.118;19.962;2023-02-01T20:28:18;12.43;;;5.80;;
73170;SDS011;61381;50.118;19.962;2023-02-01T20:33:19;13.05;;;5.07;;
73170;SDS011;61381;50.118;19.962;2023-02-01T20:38:20;13.82;;;5.18;;
73170;SDS011;61381;50.118;19.962;2023-02-01T20:43:23;10.32;;;4.80;;
73170;SDS011;61381;50.118;19.962;2023-02-01T20:48:24;16.27;;;6.07;;
73170;SDS011;61381;50.118;19.962;2023-02-01T20:53:25;14.20;;;6.35;;
73170;SDS011;61381;50.118;19.962;2023-02-01T20:58:28;10.52;;;5.13;;
73170;SDS011;61381;50.118;19.962;2023-02-01T21:03:30;14.55;;;5.18;;
73170;SDS011;61381;50.118;19.962;2023-02-01T21:08:31;13.52;;;5.15;;
73170;SDS011;61381;50.118;19.962;2023-02-01T21:18:37;11.35;;;5.32;;
73170;SDS011;61381;50.118;19.962;2023-02-01T21:23:38;10.95;;;4.95;;
73170;SDS011;61381;50.118;19.962;2023-02-01T21:28:40;13.30;;;5.82;;
73170;SDS011;61381;50.118;19.962;2023-02-01T21:33:42;12.63;;;5.60;;
73170;SDS011;61381;50.118;19.962;2023-02-01T21:43:46;8.07;;;3.33;;
73170;SDS011;61381;50.118;19.962;2023-02-01T21:48:47;13.80;;;5.63;;
73170;SDS011;61381;50.118;19.962;2023-02-01T21:53:48;11.93;;;5.28;;
73170;SDS011;61381;50.118;19.962;2023-02-01T21:58:50;9.20;;;3.60;;
73170;SDS011;61381;50.118;19.962;2023-02-01T22:03:52;6.13;;;3.42;;
73170;SDS011;61381;50.118;19.962;2023-02-01T22:08:53;8.95;;;2.78;;
73170;SDS011;61381;50.118;19.962;2023-02-01T22:13:56;5.00;;;2.70;;
73170;SDS011;61381;50.118;19.962;2023-02-01T22:18:57;6.63;;;2.35;;
73170;SDS011;61381;50.118;19.962;2023-02-01T22:23:58;4.85;;;1.98;;
73170;SDS011;61381;50.118;19.962;2023-02-01T22:29:01;5.78;;;2.45;;
73170;SDS011;61381;50.118;19.962;2023-02-01T22:34:02;6.43;;;3.42;;
73170;SDS011;61381;50.118;19.962;2023-02-01T22:39:03;6.72;;;3.20;;
73170;SDS011;61381;50.118;19.962;2023-02-01T22:44:05;4.32;;;2.70;;
73170;SDS011;61381;50.118;19.962;2023-02-01T22:49:07;6.68;;;3.22;;
73170;SDS011;61381;50.118;19.962;2023-02-01T22:54:09;6.80;;;3.97;;
73170;SDS011;61381;50.118;19.962;2023-02-01T22:59:17;10.65;;;3.33;;
73170;SDS011;61381;50.118;19.962;2023-02-01T23:04:19;6.03;;;3.00;;
73170;SDS011;61381;50.118;19.962;2023-02-01T23:09:20;7.97;;;3.47;;
73170;SDS011;61381;50.118;19.962;2023-02-01T23:14:24;9.32;;;3.70;;
73170;SDS011;61381;50.118;19.962;2023-02-01T23:19:26;8.95;;;3.45;;
73170;SDS011;61381;50.118;19.962;2023-02-01T23:24:27;5.55;;;3.28;;
73170;SDS011;61381;50.118;19.962;2023-02-01T23:29:29;8.45;;;4.07;;
73170;SDS011;61381;50.118;19.962;2023-02-01T23:34:30;5.82;;;3.17;;
73170;SDS011;61381;50.118;19.962;2023-02-01T23:39:31;2.80;;;1.63;;
73170;SDS011;61381;50.118;19.962;2023-02-01T23:44:34;7.43;;;2.78;;
73170;SDS011;61381;50.118;19.962;2023-02-01T23:49:35;7.68;;;2.83;;
73170;SDS011;61381;50.118;19.962;2023-02-01T23:59:38;4.88;;;2.30;;
